sensor_id;sensor_type;location;lat;lon;timestamp;P1;durP1;ratioP1;P2;durP2;ratioP2
35959;SDS011;22043;50.970;7.192;2023-05-15T00:00:10;2.13;;;1.20;;
35959;SDS011;22043;50.970;7.192;2023-05-15T00:02:41;2.80;;;1.52;;
35959;SDS011;22043;50.970;7.192;2023-05-15T00:05:07;3.47;;;1.10;;
35959;SDS011;22043;50.970;7.192;2023-05-15T00:07:34;2.90;;;1.38;;
35959;SDS011;22043;50.970;7.192;2023-05-15T00:10:00;3.35;;;1.30;;
35959;SDS011;22043;50.970;7.192;2023-05-15T00:12:26;2.33;;;1.25;;
35959;SDS011;22043;50.970;7.192;2023-05-15T00:14:54;2.10;;;1.10;;
35959;SDS011;22043;50.970;7.192;2023-05-15T00:17:24;2.30;;;1.10;;
35959;SDS011;22043;50.970;7.192;2023-05-15T00:19:50;3.58;;;1.20;;
35959;SDS011;22043;50.970;7.192;2023-05-15T00:22:15;3.72;;;1.33;;
35959;SDS011;22043;50.970;7.192;2023-05-15T00:24:41;3.15;;;1.80;;
35959;SDS011;22043;50.970;7.192;2023-05-15T00:27:06;2.08;;;1.30;;
35959;SDS011;22043;50.970;7.192;2023-05-15T00:29:32;3.25;;;1.63;;
35959;SDS011;22043;50.970;7.192;2023-05-15T00:31:58;3.00;;;1.48;;
35959;SDS011;22043;50.970;7.192;2023-05-15T00:34:24;4.85;;;1.67;;
35959;SDS011;22043;50.970;7.192;2023-05-15T00:36:52;4.13;;;1.42;;
35959;SDS011;22043;50.970;7.192;2023-05-15T00:39:17;5.70;;;1.63;;
35959;SDS011;22043;50.970;7.192;2023-05-15T00:41:43;2.67;;;1.42;;
35959;SDS011;22043;50.970;7.192;2023-05-15T00:44:10;2.75;;;1.40;;
35959;SDS011;22043;50.970;7.192;2023-05-15T00:46:46;3.55;;;1.30;;
35959;SDS011;22043;50.970;7.192;2023-05-15T00:49:13;3.20;;;1.52;;
35959;SDS011;22043;50.970;7.192;2023-05-15T00:51:40;4.70;;;1.40;;
35959;SDS011;22043;50.970;7.192;2023-05-15T00:54:08;3.33;;;1.48;;
35959;SDS011;22043;50.970;7.192;2023-05-15T00:56:37;2.70;;;1.42;;
35959;SDS011;22043;50.970;7.192;2023-05-15T00:59:04;3.33;;;1.50;;
35959;SDS011;22043;50.970;7.192;2023-05-15T01:04:22;4.28;;;1.65;;
35959;SDS011;22043;50.970;7.192;2023-05-15T01:06:48;3.92;;;1.60;;
35959;SDS011;22043;50.970;7.192;2023-05-15T01:09:13;2.60;;;1.33;;
35959;SDS011;22043;50.970;7.192;2023-05-15T01:11:39;3.42;;;1.70;;
35959;SDS011;22043;50.970;7.192;2023-05-15T01:14:07;4.05;;;1.80;;
35959;SDS011;22043;50.970;7.192;2023-05-15T01:16:33;4.55;;;1.50;;
35959;SDS011;22043;50.970;7.192;2023-05-15T01:19:01;2.38;;;1.45;;
35959;SDS011;22043;50.970;7.192;2023-05-15T01:32:08;2.00;;;1.40;;
35959;SDS011;22043;50.970;7.192;2023-05-15T01:34:43;2.80;;;1.52;;
35959;SDS011;22043;50.970;7.192;2023-05-15T01:37:26;3.95;;;2.20;;
35959;SDS011;22043;50.970;7.192;2023-05-15T01:42:42;3.38;;;1.85;;
35959;SDS011;22043;50.970;7.192;2023-05-15T01:45:15;2.22;;;1.27;;
35959;SDS011;22043;50.970;7.192;2023-05-15T01:47:45;2.95;;;1.60;;
35959;SDS011;22043;50.970;7.192;2023-05-15T01:50:13;2.13;;;1.50;;
35959;SDS011;22043;50.970;7.192;2023-05-15T01:52:42;2.35;;;1.40;;
35959;SDS011;22043;50.970;7.192;2023-05-15T01:55:10;2.85;;;1.60;;
35959;SDS011;22043;50.970;7.192;2023-05-15T01:57:38;3.35;;;1.67;;
35959;SDS011;22043;50.970;7.192;2023-05-15T02:00:06;2.95;;;2.00;;
35959;SDS011;22043;50.970;7.192;2023-05-15T02:02:39;3.05;;;1.90;;
35959;SDS011;22043;50.970;7.192;2023-05-15T02:05:14;3.60;;;2.03;;
35959;SDS011;22043;50.970;7.192;2023-05-15T02:07:41;2.70;;;1.95;;
35959;SDS011;22043;50.970;7.192;2023-05-15T02:10:08;3.53;;;1.90;;
35959;SDS011;22043;50.970;7.192;2023-05-15T02:12:36;4.15;;;2.13;;
35959;SDS011;22043;50.970;7.192;2023-05-15T02:15:03;5.57;;;2.43;;
35959;SDS011;22043;50.970;7.192;2023-05-15T02:17:31;6.80;;;2.10;;
35959;SDS011;22043;50.970;7.192;2023-05-15T02:19:56;3.50;;;2.17;;
35959;SDS011;22043;50.970;7.192;2023-05-15T02:22:22;3.38;;;1.70;;
35959;SDS011;22043;50.970;7.192;2023-05-15T02:24:47;3.17;;;1.70;;
35959;SDS011;22043;50.970;7.192;2023-05-15T02:27:24;4.78;;;2.00;;
35959;SDS011;22043;50.970;7.192;2023-05-15T02:35:51;5.05;;;2.67;;
35959;SDS011;22043;50.970;7.192;2023-05-15T02:38:38;6.72;;;2.88;;
35959;SDS011;22043;50.970;7.192;2023-05-15T02:41:12;4.65;;;2.63;;
35959;SDS011;22043;50.970;7.192;2023-05-15T02:43:39;6.45;;;3.20;;
35959;SDS011;22043;50.970;7.192;2023-05-15T02:46:06;5.50;;;3.03;;
35959;SDS011;22043;50.970;7.192;2023-05-15T02:48:32;6.07;;;3.47;;
35959;SDS011;22043;50.970;7.192;2023-05-15T02:50:58;6.10;;;3.20;;
35959;SDS011;22043;50.970;7.192;2023-05-15T02:53:24;5.10;;;3.08;;
35959;SDS011;22043;50.970;7.192;2023-05-15T02:55:50;5.57;;;3.42;;
35959;SDS011;22043;50.970;7.192;2023-05-15T02:58:15;10.85;;;5.38;;
35959;SDS011;22043;50.970;7.192;2023-05-15T03:00:41;11.38;;;5.78;;
35959;SDS011;22043;50.970;7.192;2023-05-15T03:03:06;17.20;;;7.93;;
35959;SDS011;22043;50.970;7.192;2023-05-15T03:05:32;19.45;;;9.13;;
35959;SDS011;22043;50.970;7.192;2023-05-15T03:07:58;17.65;;;8.40;;
35959;SDS011;22043;50.970;7.192;2023-05-15T03:10:24;20.33;;;9.07;;
35959;SDS011;22043;50.970;7.192;2023-05-15T03:12:49;22.45;;;9.57;;
35959;SDS011;22043;50.970;7.192;2023-05-15T03:15:15;20.45;;;10.52;;
35959;SDS011;22043;50.970;7.192;2023-05-15T03:17:41;25.95;;;10.38;;
35959;SDS011;22043;50.970;7.192;2023-05-15T03:20:06;22.58;;;10.48;;
35959;SDS011;22043;50.970;7.192;2023-05-15T03:22:33;25.35;;;10.93;;
35959;SDS011;22043;50.970;7.192;2023-05-15T03:24:58;25.83;;;11.00;;
35959;SDS011;22043;50.970;7.192;2023-05-15T03:27:26;24.03;;;10.37;;
35959;SDS011;22043;50.970;7.192;2023-05-15T03:29:52;25.85;;;10.85;;
35959;SDS011;22043;50.970;7.192;2023-05-15T03:32:17;31.10;;;11.25;;
35959;SDS011;22043;50.970;7.192;2023-05-15T03:34:43;34.38;;;12.32;;
35959;SDS011;22043;50.970;7.192;2023-05-15T03:37:09;24.05;;;11.02;;
35959;SDS011;22043;50.970;7.192;2023-05-15T03:39:34;32.05;;;11.98;;
35959;SDS011;22043;50.970;7.192;2023-05-15T03:42:00;26.63;;;11.73;;
35959;SDS011;22043;50.970;7.192;2023-05-15T03:44:25;27.75;;;11.30;;
35959;SDS011;22043;50.970;7.192;2023-05-15T03:46:51;26.33;;;12.27;;
35959;SDS011;22043;50.970;7.192;2023-05-15T03:49:16;23.63;;;11.52;;
35959;SDS011;22043;50.970;7.192;2023-05-15T03:51:42;27.48;;;10.90;;
35959;SDS011;22043;50.970;7.192;2023-05-15T03:54:07;30.42;;;11.45;;
35959;SDS011;22043;50.970;7.192;2023-05-15T03:56:32;22.23;;;10.13;;
35959;SDS011;22043;50.970;7.192;2023-05-15T03:58:58;24.52;;;10.90;;
35959;SDS011;22043;50.970;7.192;2023-05-15T04:01:24;26.42;;;10.40;;
35959;SDS011;22043;50.970;7.192;2023-05-15T04:03:49;32.53;;;10.77;;
35959;SDS011;22043;50.970;7.192;2023-05-15T04:06:15;28.08;;;10.82;;
35959;SDS011;22043;50.970;7.192;2023-05-15T04:08:40;21.48;;;9.38;;
35959;SDS011;22043;50.970;7.192;2023-05-15T04:11:06;26.92;;;10.13;;
35959;SDS011;22043;50.970;7.192;2023-05-15T04:13:31;27.20;;;9.73;;
35959;SDS011;22043;50.970;7.192;2023-05-15T04:15:57;27.52;;;11.35;;
35959;SDS011;22043;50.970;7.192;2023-05-15T04:18:24;22.85;;;10.20;;
35959;SDS011;22043;50.970;7.192;2023-05-15T04:20:50;26.00;;;9.88;;
35959;SDS011;22043;50.970;7.192;2023-05-15T04:23:16;27.02;;;9.52;;
35959;SDS011;22043;50.970;7.192;2023-05-15T04:25:42;23.23;;;10.32;;
35959;SDS011;22043;50.970;7.192;2023-05-15T04:28:10;27.35;;;10.40;;
35959;SDS011;22043;50.970;7.192;2023-05-15T04:30:37;23.05;;;9.55;;
35959;SDS011;22043;50.970;7.192;2023-05-15T04:33:02;23.35;;;10.13;;
35959;SDS011;22043;50.970;7.192;2023-05-15T04:35:28;29.83;;;10.85;;
35959;SDS011;22043;50.970;7.192;2023-05-15T04:37:53;30.35;;;12.77;;
35959;SDS011;22043;50.970;7.192;2023-05-15T04:40:19;33.65;;;12.23;;
35959;SDS011;22043;50.970;7.192;2023-05-15T04:42:44;32.75;;;11.82;;
35959;SDS011;22043;50.970;7.192;2023-05-15T04:45:10;31.20;;;12.95;;
35959;SDS011;22043;50.970;7.192;2023-05-15T04:47:35;32.70;;;13.05;;
35959;SDS011;22043;50.970;7.192;2023-05-15T04:50:01;36.95;;;13.27;;
35959;SDS011;22043;50.970;7.192;2023-05-15T04:52:27;35.00;;;12.00;;
35959;SDS011;22043;50.970;7.192;2023-05-15T04:54:52;37.78;;;13.82;;
35959;SDS011;22043;50.970;7.192;2023-05-15T04:57:19;43.33;;;15.30;;
35959;SDS011;22043;50.970;7.192;2023-05-15T04:59:45;33.95;;;13.77;;
35959;SDS011;22043;50.970;7.192;2023-05-15T05:02:11;34.75;;;13.75;;
35959;SDS011;22043;50.970;7.192;2023-05-15T05:04:40;38.33;;;13.68;;
35959;SDS011;22043;50.970;7.192;2023-05-15T05:07:07;43.95;;;14.10;;
35959;SDS011;22043;50.970;7.192;2023-05-15T05:09:33;39.03;;;13.15;;
35959;SDS011;22043;50.970;7.192;2023-05-15T05:11:58;38.38;;;15.65;;
35959;SDS011;22043;50.970;7.192;2023-05-15T05:14:25;40.60;;;15.47;;
35959;SDS011;22043;50.970;7.192;2023-05-15T05:16:51;33.33;;;14.00;;
35959;SDS011;22043;50.970;7.192;2023-05-15T05:19:16;34.03;;;13.52;;
35959;SDS011;22043;50.970;7.192;2023-05-15T05:21:42;37.33;;;15.10;;
35959;SDS011;22043;50.970;7.192;2023-05-15T05:24:07;42.13;;;13.82;;
35959;SDS011;22043;50.970;7.192;2023-05-15T05:26:33;36.95;;;14.98;;
35959;SDS011;22043;50.970;7.192;2023-05-15T05:28:58;39.67;;;15.00;;
35959;SDS011;22043;50.970;7.192;2023-05-15T05:31:23;39.30;;;13.90;;
35959;SDS011;22043;50.970;7.192;2023-05-15T05:33:49;46.10;;;18.02;;
35959;SDS011;22043;50.970;7.192;2023-05-15T05:36:15;40.53;;;15.07;;
35959;SDS011;22043;50.970;7.192;2023-05-15T05:38:42;36.65;;;14.48;;
35959;SDS011;22043;50.970;7.192;2023-05-15T05:41:07;40.13;;;14.35;;
35959;SDS011;22043;50.970;7.192;2023-05-15T05:43:33;38.30;;;15.77;;
35959;SDS011;22043;50.970;7.192;2023-05-15T05:46:00;39.70;;;16.60;;
35959;SDS011;22043;50.970;7.192;2023-05-15T05:48:26;39.10;;;14.88;;
35959;SDS011;22043;50.970;7.192;2023-05-15T05:50:52;34.97;;;14.88;;
35959;SDS011;22043;50.970;7.192;2023-05-15T05:53:17;36.65;;;14.65;;
35959;SDS011;22043;50.970;7.192;2023-05-15T05:55:42;36.25;;;14.40;;
35959;SDS011;22043;50.970;7.192;2023-05-15T05:58:08;30.40;;;13.63;;
35959;SDS011;22043;50.970;7.192;2023-05-15T06:00:33;34.35;;;15.02;;
35959;SDS011;22043;50.970;7.192;2023-05-15T06:02:59;39.85;;;16.15;;
35959;SDS011;22043;50.970;7.192;2023-05-15T06:05:25;33.75;;;14.45;;
35959;SDS011;22043;50.970;7.192;2023-05-15T06:07:51;34.72;;;16.67;;
35959;SDS011;22043;50.970;7.192;2023-05-15T06:10:17;37.92;;;16.02;;
35959;SDS011;22043;50.970;7.192;2023-05-15T06:12:44;40.47;;;15.05;;
35959;SDS011;22043;50.970;7.192;2023-05-15T06:15:09;33.42;;;14.43;;
35959;SDS011;22043;50.970;7.192;2023-05-15T06:17:35;33.40;;;14.00;;
35959;SDS011;22043;50.970;7.192;2023-05-15T06:20:01;32.65;;;14.80;;
35959;SDS011;22043;50.970;7.192;2023-05-15T06:22:29;29.50;;;14.32;;
35959;SDS011;22043;50.970;7.192;2023-05-15T06:24:56;37.08;;;14.13;;
35959;SDS011;22043;50.970;7.192;2023-05-15T06:27:23;32.25;;;14.57;;
35959;SDS011;22043;50.970;7.192;2023-05-15T06:29:52;34.60;;;15.50;;
35959;SDS011;22043;50.970;7.192;2023-05-15T06:32:17;36.33;;;14.88;;
35959;SDS011;22043;50.970;7.192;2023-05-15T06:34:43;36.90;;;15.73;;
35959;SDS011;22043;50.970;7.192;2023-05-15T06:37:26;42.15;;;17.38;;
35959;SDS011;22043;50.970;7.192;2023-05-15T06:40:15;40.97;;;16.38;;
35959;SDS011;22043;50.970;7.192;2023-05-15T06:42:41;36.03;;;15.00;;
35959;SDS011;22043;50.970;7.192;2023-05-15T06:45:07;40.45;;;16.55;;
35959;SDS011;22043;50.970;7.192;2023-05-15T06:47:33;39.63;;;18.67;;
35959;SDS011;22043;50.970;7.192;2023-05-15T06:49:59;40.03;;;17.83;;
35959;SDS011;22043;50.970;7.192;2023-05-15T06:52:24;39.03;;;16.60;;
35959;SDS011;22043;50.970;7.192;2023-05-15T06:54:50;38.22;;;17.33;;
35959;SDS011;22043;50.970;7.192;2023-05-15T06:57:16;37.67;;;17.05;;
35959;SDS011;22043;50.970;7.192;2023-05-15T06:59:44;38.72;;;15.43;;
35959;SDS011;22043;50.970;7.192;2023-05-15T07:02:10;39.03;;;17.27;;
35959;SDS011;22043;50.970;7.192;2023-05-15T07:04:35;38.03;;;15.77;;
35959;SDS011;22043;50.970;7.192;2023-05-15T07:07:01;34.70;;;15.80;;
35959;SDS011;22043;50.970;7.192;2023-05-15T07:09:26;29.00;;;14.52;;
35959;SDS011;22043;50.970;7.192;2023-05-15T07:11:52;28.42;;;13.48;;
35959;SDS011;22043;50.970;7.192;2023-05-15T07:14:17;31.92;;;13.93;;
35959;SDS011;22043;50.970;7.192;2023-05-15T07:16:43;29.90;;;13.98;;
35959;SDS011;22043;50.970;7.192;2023-05-15T07:19:09;28.27;;;13.13;;
35959;SDS011;22043;50.970;7.192;2023-05-15T07:21:47;29.42;;;12.90;;
35959;SDS011;22043;50.970;7.192;2023-05-15T07:24:13;25.42;;;12.60;;
35959;SDS011;22043;50.970;7.192;2023-05-15T07:26:38;26.52;;;11.95;;
35959;SDS011;22043;50.970;7.192;2023-05-15T07:29:04;30.45;;;12.75;;
35959;SDS011;22043;50.970;7.192;2023-05-15T07:31:29;25.55;;;12.75;;
35959;SDS011;22043;50.970;7.192;2023-05-15T07:33:58;24.83;;;12.02;;
35959;SDS011;22043;50.970;7.192;2023-05-15T07:36:23;25.35;;;12.05;;
35959;SDS011;22043;50.970;7.192;2023-05-15T07:38:48;31.17;;;12.95;;
35959;SDS011;22043;50.970;7.192;2023-05-15T07:41:14;26.88;;;12.68;;
35959;SDS011;22043;50.970;7.192;2023-05-15T07:43:39;30.23;;;13.63;;
35959;SDS011;22043;50.970;7.192;2023-05-15T07:46:05;28.88;;;11.38;;
35959;SDS011;22043;50.970;7.192;2023-05-15T07:48:30;30.25;;;12.48;;
35959;SDS011;22043;50.970;7.192;2023-05-15T07:50:58;30.45;;;13.23;;
35959;SDS011;22043;50.970;7.192;2023-05-15T07:53:52;29.90;;;13.68;;
35959;SDS011;22043;50.970;7.192;2023-05-15T07:56:17;28.90;;;13.00;;
35959;SDS011;22043;50.970;7.192;2023-05-15T07:58:43;26.15;;;13.55;;
35959;SDS011;22043;50.970;7.192;2023-05-15T08:01:10;25.83;;;13.18;;
35959;SDS011;22043;50.970;7.192;2023-05-15T08:03:38;29.23;;;14.00;;
35959;SDS011;22043;50.970;7.192;2023-05-15T08:06:06;31.95;;;15.65;;
35959;SDS011;22043;50.970;7.192;2023-05-15T08:08:36;32.05;;;15.27;;
35959;SDS011;22043;50.970;7.192;2023-05-15T08:11:02;34.97;;;15.00;;
35959;SDS011;22043;50.970;7.192;2023-05-15T08:13:39;37.00;;;15.47;;
35959;SDS011;22043;50.970;7.192;2023-05-15T08:16:05;33.05;;;15.38;;
35959;SDS011;22043;50.970;7.192;2023-05-15T08:18:33;34.30;;;15.20;;
35959;SDS011;22043;50.970;7.192;2023-05-15T08:21:00;34.25;;;14.85;;
35959;SDS011;22043;50.970;7.192;2023-05-15T08:23:25;31.38;;;15.05;;
35959;SDS011;22043;50.970;7.192;2023-05-15T08:25:53;31.13;;;14.52;;
35959;SDS011;22043;50.970;7.192;2023-05-15T08:28:21;34.05;;;15.43;;
35959;SDS011;22043;50.970;7.192;2023-05-15T08:30:46;29.67;;;14.27;;
35959;SDS011;22043;50.970;7.192;2023-05-15T08:33:20;30.52;;;15.20;;
35959;SDS011;22043;50.970;7.192;2023-05-15T08:35:47;32.30;;;14.68;;
35959;SDS011;22043;50.970;7.192;2023-05-15T08:38:14;31.58;;;14.75;;
35959;SDS011;22043;50.970;7.192;2023-05-15T08:40:41;27.60;;;14.18;;
35959;SDS011;22043;50.970;7.192;2023-05-15T08:43:17;25.05;;;13.35;;
35959;SDS011;22043;50.970;7.192;2023-05-15T08:45:46;35.47;;;14.02;;
35959;SDS011;22043;50.970;7.192;2023-05-15T08:48:13;29.17;;;14.13;;
35959;SDS011;22043;50.970;7.192;2023-05-15T08:50:40;29.73;;;13.90;;
35959;SDS011;22043;50.970;7.192;2023-05-15T08:53:11;24.98;;;13.05;;
35959;SDS011;22043;50.970;7.192;2023-05-15T08:55:37;29.63;;;13.50;;
35959;SDS011;22043;50.970;7.192;2023-05-15T08:58:03;28.70;;;14.30;;
35959;SDS011;22043;50.970;7.192;2023-05-15T09:00:29;29.67;;;13.95;;
35959;SDS011;22043;50.970;7.192;2023-05-15T09:02:59;31.58;;;14.48;;
35959;SDS011;22043;50.970;7.192;2023-05-15T09:05:30;30.63;;;14.73;;
35959;SDS011;22043;50.970;7.192;2023-05-15T09:07:57;27.27;;;12.95;;
35959;SDS011;22043;50.970;7.192;2023-05-15T09:10:26;24.65;;;12.57;;
35959;SDS011;22043;50.970;7.192;2023-05-15T09:12:53;27.48;;;13.02;;
35959;SDS011;22043;50.970;7.192;2023-05-15T09:15:19;28.67;;;13.70;;
35959;SDS011;22043;50.970;7.192;2023-05-15T09:17:54;29.83;;;14.60;;
35959;SDS011;22043;50.970;7.192;2023-05-15T09:22:59;25.55;;;12.95;;
35959;SDS011;22043;50.970;7.192;2023-05-15T09:25:36;26.42;;;13.60;;
35959;SDS011;22043;50.970;7.192;2023-05-15T09:28:10;25.35;;;13.27;;
35959;SDS011;22043;50.970;7.192;2023-05-15T09:31:01;26.40;;;12.90;;
35959;SDS011;22043;50.970;7.192;2023-05-15T09:33:29;27.98;;;14.45;;
35959;SDS011;22043;50.970;7.192;2023-05-15T09:35:59;29.15;;;13.68;;
35959;SDS011;22043;50.970;7.192;2023-05-15T09:38:26;29.75;;;13.73;;
35959;SDS011;22043;50.970;7.192;2023-05-15T09:40:59;27.05;;;12.90;;
35959;SDS011;22043;50.970;7.192;2023-05-15T09:43:36;26.42;;;13.05;;
35959;SDS011;22043;50.970;7.192;2023-05-15T09:46:03;27.67;;;13.48;;
35959;SDS011;22043;50.970;7.192;2023-05-15T09:48:29;29.63;;;13.18;;
35959;SDS011;22043;50.970;7.192;2023-05-15T09:50:55;32.40;;;15.30;;
35959;SDS011;22043;50.970;7.192;2023-05-15T09:53:21;27.58;;;13.35;;
35959;SDS011;22043;50.970;7.192;2023-05-15T09:55:51;25.05;;;12.55;;
35959;SDS011;22043;50.970;7.192;2023-05-15T10:00:43;27.85;;;12.63;;
35959;SDS011;22043;50.970;7.192;2023-05-15T10:03:10;30.20;;;14.45;;
35959;SDS011;22043;50.970;7.192;2023-05-15T10:05:36;30.15;;;13.63;;
35959;SDS011;22043;50.970;7.192;2023-05-15T10:08:02;31.58;;;13.25;;
35959;SDS011;22043;50.970;7.192;2023-05-15T10:10:29;29.48;;;14.27;;
35959;SDS011;22043;50.970;7.192;2023-05-15T10:12:58;28.65;;;13.70;;
35959;SDS011;22043;50.970;7.192;2023-05-15T10:15:30;26.15;;;14.00;;
35959;SDS011;22043;50.970;7.192;2023-05-15T10:17:56;28.05;;;13.77;;
35959;SDS011;22043;50.970;7.192;2023-05-15T10:20:24;25.38;;;13.55;;
35959;SDS011;22043;50.970;7.192;2023-05-15T10:28:21;22.90;;;12.52;;
35959;SDS011;22043;50.970;7.192;2023-05-15T10:30:48;26.58;;;12.40;;
35959;SDS011;22043;50.970;7.192;2023-05-15T10:33:13;23.92;;;13.23;;
35959;SDS011;22043;50.970;7.192;2023-05-15T10:35:42;27.05;;;14.02;;
35959;SDS011;22043;50.970;7.192;2023-05-15T10:38:08;28.00;;;14.70;;
35959;SDS011;22043;50.970;7.192;2023-05-15T10:40:36;29.58;;;14.45;;
35959;SDS011;22043;50.970;7.192;2023-05-15T10:43:09;27.50;;;13.35;;
35959;SDS011;22043;50.970;7.192;2023-05-15T10:45:36;25.77;;;13.80;;
35959;SDS011;22043;50.970;7.192;2023-05-15T10:48:04;27.33;;;13.10;;
35959;SDS011;22043;50.970;7.192;2023-05-15T10:50:32;26.58;;;12.02;;
35959;SDS011;22043;50.970;7.192;2023-05-15T10:52:58;21.77;;;12.13;;
35959;SDS011;22043;50.970;7.192;2023-05-15T10:55:24;22.83;;;12.15;;
35959;SDS011;22043;50.970;7.192;2023-05-15T10:57:50;24.02;;;12.20;;
35959;SDS011;22043;50.970;7.192;2023-05-15T11:02:47;22.17;;;11.98;;
35959;SDS011;22043;50.970;7.192;2023-05-15T11:05:23;22.13;;;11.48;;
35959;SDS011;22043;50.970;7.192;2023-05-15T11:10:52;24.95;;;11.70;;
35959;SDS011;22043;50.970;7.192;2023-05-15T11:13:18;20.75;;;10.60;;
35959;SDS011;22043;50.970;7.192;2023-05-15T11:15:45;16.80;;;10.27;;
35959;SDS011;22043;50.970;7.192;2023-05-15T11:18:12;19.95;;;9.77;;
35959;SDS011;22043;50.970;7.192;2023-05-15T11:20:42;21.67;;;10.68;;
35959;SDS011;22043;50.970;7.192;2023-05-15T11:23:26;15.70;;;8.68;;
35959;SDS011;22043;50.970;7.192;2023-05-15T11:25:53;15.45;;;8.10;;
35959;SDS011;22043;50.970;7.192;2023-05-15T11:28:28;15.75;;;8.07;;
35959;SDS011;22043;50.970;7.192;2023-05-15T11:30:58;15.65;;;7.20;;
35959;SDS011;22043;50.970;7.192;2023-05-15T11:33:28;13.40;;;7.03;;
35959;SDS011;22043;50.970;7.192;2023-05-15T11:35:58;12.77;;;7.80;;
35959;SDS011;22043;50.970;7.192;2023-05-15T11:38:35;11.80;;;6.63;;
35959;SDS011;22043;50.970;7.192;2023-05-15T11:41:11;14.00;;;7.57;;
35959;SDS011;22043;50.970;7.192;2023-05-15T11:43:49;12.27;;;6.90;;
35959;SDS011;22043;50.970;7.192;2023-05-15T11:46:14;15.10;;;7.47;;
35959;SDS011;22043;50.970;7.192;2023-05-15T11:48:44;14.80;;;7.38;;
35959;SDS011;22043;50.970;7.192;2023-05-15T11:51:22;16.48;;;7.93;;
35959;SDS011;22043;50.970;7.192;2023-05-15T11:53:54;14.70;;;7.53;;
35959;SDS011;22043;50.970;7.192;2023-05-15T11:56:21;14.88;;;7.15;;
35959;SDS011;22043;50.970;7.192;2023-05-15T11:58:48;15.07;;;7.78;;
35959;SDS011;22043;50.970;7.192;2023-05-15T12:01:40;16.42;;;8.05;;
35959;SDS011;22043;50.970;7.192;2023-05-15T12:04:13;14.73;;;6.97;;
35959;SDS011;22043;50.970;7.192;2023-05-15T12:06:40;12.70;;;7.05;;
35959;SDS011;22043;50.970;7.192;2023-05-15T12:09:15;13.43;;;7.72;;
35959;SDS011;22043;50.970;7.192;2023-05-15T12:11:47;12.95;;;6.80;;
35959;SDS011;22043;50.970;7.192;2023-05-15T12:14:14;12.98;;;6.55;;
35959;SDS011;22043;50.970;7.192;2023-05-15T12:16:40;14.38;;;7.30;;
35959;SDS011;22043;50.970;7.192;2023-05-15T12:19:06;12.98;;;5.57;;
35959;SDS011;22043;50.970;7.192;2023-05-15T12:21:31;11.60;;;5.20;;
35959;SDS011;22043;50.970;7.192;2023-05-15T12:23:57;11.52;;;5.63;;
35959;SDS011;22043;50.970;7.192;2023-05-15T12:26:23;11.88;;;5.57;;
35959;SDS011;22043;50.970;7.192;2023-05-15T12:28:50;9.73;;;5.27;;
35959;SDS011;22043;50.970;7.192;2023-05-15T12:31:18;11.48;;;6.35;;
35959;SDS011;22043;50.970;7.192;2023-05-15T12:33:44;12.45;;;5.78;;
35959;SDS011;22043;50.970;7.192;2023-05-15T12:36:10;12.30;;;5.80;;
35959;SDS011;22043;50.970;7.192;2023-05-15T12:38:36;10.75;;;5.57;;
35959;SDS011;22043;50.970;7.192;2023-05-15T12:41:02;14.82;;;5.03;;
35959;SDS011;22043;50.970;7.192;2023-05-15T12:43:27;8.60;;;4.78;;
35959;SDS011;22043;50.970;7.192;2023-05-15T12:48:21;12.30;;;4.90;;
35959;SDS011;22043;50.970;7.192;2023-05-15T12:50:47;10.88;;;5.90;;
35959;SDS011;22043;50.970;7.192;2023-05-15T12:53:14;10.13;;;5.95;;
35959;SDS011;22043;50.970;7.192;2023-05-15T12:55:43;9.73;;;4.93;;
35959;SDS011;22043;50.970;7.192;2023-05-15T12:58:15;9.02;;;4.80;;
35959;SDS011;22043;50.970;7.192;2023-05-15T13:07:48;9.73;;;5.10;;
35959;SDS011;22043;50.970;7.192;2023-05-15T13:10:13;12.60;;;5.28;;
35959;SDS011;22043;50.970;7.192;2023-05-15T13:12:43;11.07;;;5.45;;
35959;SDS011;22043;50.970;7.192;2023-05-15T13:15:27;9.55;;;4.75;;
35959;SDS011;22043;50.970;7.192;2023-05-15T13:18:03;7.30;;;4.20;;
35959;SDS011;22043;50.970;7.192;2023-05-15T13:20:34;9.18;;;4.60;;
35959;SDS011;22043;50.970;7.192;2023-05-15T13:23:03;9.85;;;4.32;;
35959;SDS011;22043;50.970;7.192;2023-05-15T13:25:29;8.32;;;4.78;;
35959;SDS011;22043;50.970;7.192;2023-05-15T13:27:58;10.27;;;5.05;;
35959;SDS011;22043;50.970;7.192;2023-05-15T13:30:24;8.70;;;3.30;;
35959;SDS011;22043;50.970;7.192;2023-05-15T13:32:51;10.98;;;4.20;;
35959;SDS011;22043;50.970;7.192;2023-05-15T13:35:17;8.27;;;3.97;;
35959;SDS011;22043;50.970;7.192;2023-05-15T13:37:43;12.85;;;4.03;;
35959;SDS011;22043;50.970;7.192;2023-05-15T13:40:09;8.15;;;4.35;;
35959;SDS011;22043;50.970;7.192;2023-05-15T13:42:36;7.80;;;3.70;;
35959;SDS011;22043;50.970;7.192;2023-05-15T13:45:06;7.75;;;4.47;;
35959;SDS011;22043;50.970;7.192;2023-05-15T13:47:35;8.10;;;4.32;;
35959;SDS011;22043;50.970;7.192;2023-05-15T13:52:29;6.65;;;3.63;;
35959;SDS011;22043;50.970;7.192;2023-05-15T13:54:55;10.48;;;4.07;;
35959;SDS011;22043;50.970;7.192;2023-05-15T13:57:21;8.50;;;4.28;;
35959;SDS011;22043;50.970;7.192;2023-05-15T13:59:46;7.57;;;3.70;;
35959;SDS011;22043;50.970;7.192;2023-05-15T14:02:12;6.50;;;3.65;;
35959;SDS011;22043;50.970;7.192;2023-05-15T14:04:38;6.25;;;3.53;;
35959;SDS011;22043;50.970;7.192;2023-05-15T14:07:03;6.97;;;3.65;;
35959;SDS011;22043;50.970;7.192;2023-05-15T14:09:29;8.18;;;4.30;;
35959;SDS011;22043;50.970;7.192;2023-05-15T14:11:54;6.95;;;3.42;;
35959;SDS011;22043;50.970;7.192;2023-05-15T14:14:27;7.25;;;4.15;;
35959;SDS011;22043;50.970;7.192;2023-05-15T14:33:46;6.75;;;3.42;;
35959;SDS011;22043;50.970;7.192;2023-05-15T14:36:20;7.38;;;4.13;;
35959;SDS011;22043;50.970;7.192;2023-05-15T14:38:46;6.75;;;3.95;;
35959;SDS011;22043;50.970;7.192;2023-05-15T14:41:13;7.15;;;4.07;;
35959;SDS011;22043;50.970;7.192;2023-05-15T14:43:39;6.75;;;3.88;;
35959;SDS011;22043;50.970;7.192;2023-05-15T14:46:04;7.55;;;4.18;;
35959;SDS011;22043;50.970;7.192;2023-05-15T14:48:30;7.22;;;4.15;;
35959;SDS011;22043;50.970;7.192;2023-05-15T14:51:05;8.35;;;4.10;;
35959;SDS011;22043;50.970;7.192;2023-05-15T14:53:31;9.20;;;4.47;;
35959;SDS011;22043;50.970;7.192;2023-05-15T14:55:58;8.90;;;4.57;;
35959;SDS011;22043;50.970;7.192;2023-05-15T14:58:23;8.88;;;4.53;;
35959;SDS011;22043;50.970;7.192;2023-05-15T15:00:49;13.35;;;6.00;;
35959;SDS011;22043;50.970;7.192;2023-05-15T15:03:14;12.25;;;6.70;;
35959;SDS011;22043;50.970;7.192;2023-05-15T15:05:40;12.85;;;5.72;;
35959;SDS011;22043;50.970;7.192;2023-05-15T15:08:06;9.77;;;6.07;;
35959;SDS011;22043;50.970;7.192;2023-05-15T15:10:33;8.75;;;5.20;;
35959;SDS011;22043;50.970;7.192;2023-05-15T15:13:01;12.63;;;5.60;;
35959;SDS011;22043;50.970;7.192;2023-05-15T15:15:27;10.85;;;6.57;;
35959;SDS011;22043;50.970;7.192;2023-05-15T15:17:54;11.15;;;6.30;;
35959;SDS011;22043;50.970;7.192;2023-05-15T15:20:24;10.50;;;6.55;;
35959;SDS011;22043;50.970;7.192;2023-05-15T15:22:50;9.68;;;5.75;;
35959;SDS011;22043;50.970;7.192;2023-05-15T15:25:16;12.73;;;6.75;;
35959;SDS011;22043;50.970;7.192;2023-05-15T15:27:45;12.98;;;6.57;;
35959;SDS011;22043;50.970;7.192;2023-05-15T15:30:11;12.48;;;6.15;;
35959;SDS011;22043;50.970;7.192;2023-05-15T15:32:37;12.85;;;6.43;;
35959;SDS011;22043;50.970;7.192;2023-05-15T15:35:04;14.25;;;6.40;;
35959;SDS011;22043;50.970;7.192;2023-05-15T15:37:31;11.10;;;6.30;;
35959;SDS011;22043;50.970;7.192;2023-05-15T15:39:57;11.45;;;6.13;;